Time;durP1;ratioP1;P1;durP2;ratioP2;P2;SDS_P1;SDS_P2;PMS_P1;PMS_P2;Temp;Humidity;BMP_temperature;BMP_pressure;BME280_temperature;BME280_humidity;BME280_pressure;Samples;Min_cycle;Max_cycle;Signal;HPM_P1;HPM_P2
2021/04/07 00:00:44;;;;;;;15.15;6.85;;;;;;;5.57;76.69;98511.77;1656741;84;21188;-83
2021/04/07 00:03:12;;;;;;;18.52;7.97;;;;;;;5.60;76.54;98510.31;1653183;84;21242;-83
2021/04/07 00:05:43;;;;;;;17.27;7.33;;;;;;;5.59;76.66;98500.80;1627375;85;21262;-85
2021/04/07 00:08:16;;;;;;;20.08;7.58;;;;;;;5.55;76.79;98507.06;1623275;87;21214;-82
2021/04/07 00:10:45;;;;;;;18.62;7.85;;;;;;;5.56;76.69;98506.13;1664178;84;21239;-84
2021/04/07 00:13:14;;;;;;;15.13;7.12;;;;;;;5.57;76.88;98501.78;1660784;84;21245;-77
2021/04/07 00:15:42;;;;;;;19.85;7.22;;;;;;;5.56;77.03;98504.83;1662298;84;21250;-77
2021/04/07 00:18:10;;;;;;;16.82;7.40;;;;;;;5.54;77.16;98502.73;1662180;84;21198;-80
2021/04/07 00:20:38;;;;;;;18.90;7.70;;;;;;;5.54;77.39;98496.67;1659393;84;21253;-80
2021/04/07 00:23:06;;;;;;;14.68;7.70;;;;;;;5.53;77.48;98498.44;1632540;86;21283;-81
2021/04/07 00:25:35;;;;;;;15.90;7.92;;;;;;;5.51;77.56;98496.34;1654315;85;22239;-82
2021/04/07 00:28:06;;;;;;;16.07;8.85;;;;;;;5.47;77.56;98490.86;1650616;85;21617;-81
2021/04/07 00:30:36;;;;;;;17.30;7.97;;;;;;;5.46;77.77;98493.09;1645093;85;21665;-83
2021/04/07 00:33:05;;;;;;;24.47;8.05;;;;;;;5.45;77.81;98490.06;1644538;86;21288;-80
2021/04/07 00:35:33;;;;;;;17.23;7.67;;;;;;;5.43;77.97;98488.84;1673903;85;22806;-81
2021/04/07 00:38:01;;;;;;;17.20;7.60;;;;;;;5.43;77.93;98494.53;1676193;83;21195;-83
2021/04/07 00:40:30;;;;;;;23.92;8.95;;;;;;;5.42;77.98;98487.59;1671528;84;21179;-83
2021/04/07 00:42:59;;;;;;;15.23;7.42;;;;;;;5.42;78.03;98488.91;1678379;83;21750;-82
2021/04/07 00:45:27;;;;;;;20.00;8.90;;;;;;;5.40;78.06;98492.03;1672470;84;21266;-82
2021/04/07 00:47:57;;;;;;;15.95;7.80;;;;;;;5.38;78.26;98486.02;1694105;82;21357;-82
2021/04/07 00:50:27;;;;;;;16.65;7.20;;;;;;;5.37;78.27;98483.03;1700156;83;21217;-83
2021/04/07 00:52:55;;;;;;;13.55;7.40;;;;;;;5.36;78.49;98482.63;1683678;82;21255;-82
2021/04/07 00:55:35;;;;;;;15.65;6.53;;;;;;;5.36;78.71;98482.63;1694777;83;21857;-84
2021/04/07 00:58:04;;;;;;;11.75;6.42;;;;;;;5.35;78.92;98486.16;1696583;82;21219;-84
2021/04/07 01:00:35;;;;;;;15.55;7.53;;;;;;;5.32;78.94;98477.16;1684988;84;21210;-84
2021/04/07 01:03:02;;;;;;;16.25;7.85;;;;;;;5.34;78.77;98481.87;1695500;82;21210;-82
2021/04/07 01:05:31;;;;;;;14.47;8.73;;;;;;;5.32;78.73;98479.78;1667715;83;21310;-82
2021/04/07 01:08:00;;;;;;;19.10;9.83;;;;;;;5.33;78.83;98486.68;1664814;84;21970;-84
2021/04/07 01:10:28;;;;;;;20.60;9.55;;;;;;;5.32;78.75;98481.08;1663906;85;21233;-86
2021/04/07 01:12:56;;;;;;;19.35;8.93;;;;;;;5.33;79.12;98482.77;1630343;85;22784;-84
2021/04/07 01:15:24;;;;;;;17.05;8.23;;;;;;;5.32;79.15;98477.16;1628852;86;21233;-85
2021/04/07 01:17:57;;;;;;;18.62;8.68;;;;;;;5.33;79.25;98474.93;1711616;83;21188;-82
2021/04/07 01:20:25;;;;;;;16.25;9.08;;;;;;;5.31;79.31;98488.50;1709500;81;26945;-84
2021/04/07 01:22:58;;;;;;;17.52;9.58;;;;;;;5.29;79.30;98487.28;1701869;83;21232;-85
2021/04/07 01:25:28;;;;;;;21.40;9.88;;;;;;;5.26;79.42;98486.92;1702678;83;21264;-84
2021/04/07 01:27:58;;;;;;;16.90;7.28;;;;;;;5.25;79.70;98489.16;1708816;83;21231;-85
2021/04/07 01:30:27;;;;;;;19.05;9.00;;;;;;;5.24;79.71;98490.08;1699940;83;21422;-78
2021/04/07 01:32:54;;;;;;;14.93;7.78;;;;;;;5.28;79.95;98491.25;1705535;83;21156;-76
2021/04/07 01:35:24;;;;;;;15.30;8.18;;;;;;;5.28;80.12;98491.25;1707045;83;21237;-77
2021/04/07 01:37:51;;;;;;;17.62;8.50;;;;;;;5.28;80.12;98488.64;1700178;83;22317;-78
2021/04/07 01:40:21;;;;;;;15.25;8.53;;;;;;;5.25;80.11;98483.94;1698135;83;21243;-78
2021/04/07 01:42:49;;;;;;;17.20;9.70;;;;;;;5.26;80.02;98486.92;1706817;83;21248;-77
2021/04/07 01:45:17;;;;;;;18.27;10.23;;;;;;;5.25;80.20;98490.92;1704113;83;21255;-78
2021/04/07 01:47:47;;;;;;;19.55;10.23;;;;;;;5.24;80.07;98485.30;1704214;83;22377;-75
2021/04/07 01:50:15;;;;;;;18.05;10.93;;;;;;;5.23;80.17;98484.45;1702518;83;22307;-79
2021/04/07 01:52:43;;;;;;;19.87;10.18;;;;;;;5.24;80.29;98478.77;1693583;83;21180;-82
2021/04/07 01:55:13;;;;;;;20.32;10.68;;;;;;;5.21;80.66;98483.66;1698841;83;21227;-78
2021/04/07 01:57:41;;;;;;;26.75;11.75;;;;;;;5.22;80.58;98476.25;1703758;82;21220;-79
2021/04/07 02:00:13;;;;;;;21.48;11.10;;;;;;;5.22;80.63;98473.64;1700027;83;21239;-79
2021/04/07 02:02:42;;;;;;;21.70;11.08;;;;;;;5.22;80.71;98473.64;1697022;83;21222;-79
2021/04/07 02:05:12;;;;;;;21.95;10.18;;;;;;;5.23;80.72;98472.70;1700230;83;21681;-80
2021/04/07 02:07:40;;;;;;;20.20;9.05;;;;;;;5.24;80.91;98467.90;1697538;82;21216;-81
2021/04/07 02:10:11;;;;;;;24.15;10.43;;;;;;;5.26;81.16;98465.20;1690734;83;21278;-81
2021/04/07 02:12:39;;;;;;;24.55;10.35;;;;;;;5.28;81.18;98459.93;1695735;84;21727;-81
2021/04/07 02:15:13;;;;;;;22.82;11.08;;;;;;;5.26;81.33;98456.06;1694489;83;22397;-79
2021/04/07 02:17:41;;;;;;;21.40;10.38;;;;;;;5.28;81.67;98448.19;1687926;83;22286;-81
2021/04/07 02:20:10;;;;;;;21.97;10.75;;;;;;;5.31;81.89;98450.19;1700577;81;21244;-82
2021/04/07 02:22:38;;;;;;;19.85;10.58;;;;;;;5.34;81.94;98445.32;1695638;83;21208;-80
2021/04/07 02:25:08;;;;;;;23.45;11.18;;;;;;;5.36;81.81;98444.77;1695042;83;21161;-81
2021/04/07 02:27:36;;;;;;;22.30;12.73;;;;;;;5.37;81.98;98439.96;1691539;83;21389;-81
2021/04/07 02:30:07;;;;;;;28.02;14.60;;;;;;;5.39;81.82;98440.75;1688762;83;21303;-80
2021/04/07 02:32:35;;;;;;;25.45;14.47;;;;;;;5.39;81.89;98432.91;1691416;84;21292;-82
2021/04/07 02:35:04;;;;;;;24.02;14.00;;;;;;;5.38;81.90;98427.28;1688102;84;21273;-83
2021/04/07 02:37:32;;;;;;;30.55;15.18;;;;;;;5.38;81.92;98418.15;1686201;83;21208;-80
2021/04/07 02:40:01;;;;;;;30.12;14.73;;;;;;;5.36;82.09;98409.53;1686147;83;21806;-80
2021/04/07 02:42:30;;;;;;;28.70;17.50;;;;;;;5.34;82.08;98416.14;1696899;83;21253;-81
2021/04/07 02:44:58;;;;;;;25.72;15.78;;;;;;;5.26;82.21;98408.63;1701967;81;21141;-79
2021/04/07 02:47:27;;;;;;;26.10;14.90;;;;;;;5.19;82.21;98411.11;1699130;83;21137;-78
2021/04/07 02:49:55;;;;;;;29.85;17.52;;;;;;;5.16;82.34;98408.64;1709959;83;21574;-77
2021/04/07 02:52:24;;;;;;;27.70;16.67;;;;;;;5.11;82.50;98408.42;1703720;83;21216;-79
2021/04/07 02:54:52;;;;;;;36.63;19.27;;;;;;;5.04;82.50;98407.41;1698599;83;21751;-80
2021/04/07 02:57:21;;;;;;;32.88;20.30;;;;;;;4.97;82.67;98412.91;1709961;83;21209;-78
2021/04/07 02:59:50;;;;;;;31.10;18.37;;;;;;;4.91;82.89;98428.84;1693244;83;21189;-79
2021/04/07 03:02:19;;;;;;;29.18;18.52;;;;;;;4.86;82.95;98439.47;1688823;83;21767;-81
2021/04/07 03:04:49;;;;;;;28.77;18.35;;;;;;;4.80;82.78;98442.31;1699859;83;21209;-82
2021/04/07 03:07:17;;;;;;;27.98;16.70;;;;;;;4.74;82.85;98451.67;1704858;83;21208;-79
2021/04/07 03:09:45;;;;;;;25.02;16.02;;;;;;;4.67;82.97;98463.27;1702635;83;21198;-80
2021/04/07 03:12:13;;;;;;;25.32;15.80;;;;;;;4.58;82.98;98471.02;1700458;83;21335;-82
2021/04/07 03:15:29;;;;;;;23.33;14.47;;;;;;;4.58;83.27;98484.06;1775877;79;26674;-80
2021/04/07 03:17:58;;;;;;;24.82;15.60;;;;;;;4.48;83.34;98490.52;1748292;81;21147;-80
2021/04/07 03:20:26;;;;;;;24.40;15.20;;;;;;;4.48;83.38;98498.34;1719429;82;21443;-81
2021/04/07 03:22:54;;;;;;;24.63;14.33;;;;;;;4.46;83.39;98501.45;1715141;80;21301;-69
2021/04/07 03:25:23;;;;;;;21.07;12.85;;;;;;;4.43;83.43;98513.31;1687255;85;21202;-68
2021/04/07 03:27:51;;;;;;;24.82;14.43;;;;;;;4.39;83.63;98522.98;1742425;82;21201;-68
2021/04/07 03:30:20;;;;;;;22.32;13.30;;;;;;;4.33;83.67;98526.69;1742640;82;21208;-68
2021/04/07 03:32:49;;;;;;;25.00;13.58;;;;;;;4.26;83.74;98532.20;1742414;82;22333;-69
2021/04/07 03:35:17;;;;;;;20.85;11.00;;;;;;;4.20;84.05;98526.28;1742437;82;21213;-68
2021/04/07 03:38:01;;;;;;;18.25;11.43;;;;;;;4.14;84.06;98539.98;1742423;81;21169;-70
2021/04/07 03:40:28;;;;;;;24.18;11.25;;;;;;;4.10;84.12;98546.23;1682975;85;21629;-76
2021/04/07 03:43:07;;;;;;;21.65;11.70;;;;;;;4.05;84.18;98544.22;1645608;86;21250;-76
2021/04/07 03:45:44;;;;;;;25.65;13.58;;;;;;;4.00;84.39;98544.38;1636757;86;21234;-75
2021/04/07 03:48:21;;;;;;;24.87;11.90;;;;;;;3.97;84.42;98546.65;1661214;86;21228;-76
2021/04/07 03:50:55;;;;;;;20.62;10.90;;;;;;;3.96;84.56;98551.47;1695153;84;21182;-76
2021/04/07 03:53:32;;;;;;;20.43;10.53;;;;;;;3.95;84.48;98549.76;1818445;74;22992;-69
2021/04/07 03:56:01;;;;;;;20.35;8.95;;;;;;;3.85;84.59;98552.30;1720419;82;21184;-68
2021/04/07 03:58:29;;;;;;;32.63;15.45;;;;;;;3.83;84.75;98544.98;1720581;83;22251;-70
2021/04/07 04:00:58;;;;;;;17.60;9.43;;;;;;;3.81;84.95;98549.40;1740345;81;21195;-70
2021/04/07 04:03:26;;;;;;;16.05;8.18;;;;;;;3.81;84.83;98553.30;1756730;81;21196;-70
2021/04/07 04:05:54;;;;;;;16.50;8.10;;;;;;;3.78;85.00;98558.17;1756794;80;21183;-69
2021/04/07 04:08:22;;;;;;;13.58;7.58;;;;;;;3.78;85.00;98558.17;1769789;79;21219;-74
2021/04/07 04:10:50;;;;;;;14.65;7.83;;;;;;;3.79;84.93;98553.80;1723916;82;21368;-74
2021/04/07 04:13:18;;;;;;;14.73;8.33;;;;;;;3.79;84.95;98556.41;1724686;81;21194;-74
2021/04/07 04:15:46;;;;;;;15.98;8.53;;;;;;;3.78;85.01;98554.72;1745250;81;21127;-75
2021/04/07 04:18:14;;;;;;;13.18;7.90;;;;;;;3.80;85.21;98554.22;1733540;81;21162;-75
2021/04/07 04:20:43;;;;;;;12.33;6.67;;;;;;;3.77;85.12;98557.78;1724769;83;21182;-79
2021/04/07 04:23:11;;;;;;;10.32;6.83;;;;;;;3.75;85.38;98557.41;1710104;82;22276;-78
2021/04/07 04:25:39;;;;;;;11.38;6.97;;;;;;;3.73;85.48;98557.48;1717551;83;21726;-79
2021/04/07 04:28:07;;;;;;;15.45;7.30;;;;;;;3.69;85.21;98555.88;1712571;83;21194;-79
2021/04/07 04:30:35;;;;;;;12.63;6.00;;;;;;;3.62;85.16;98553.55;1706695;83;21217;-79
2021/04/07 04:33:04;;;;;;;11.22;7.83;;;;;;;3.60;85.45;98553.59;1699127;83;21183;-78
2021/04/07 04:35:32;;;;;;;10.45;6.08;;;;;;;3.55;85.51;98549.84;1711412;83;21376;-79
2021/04/07 04:38:00;;;;;;;11.50;6.55;;;;;;;3.51;85.57;98549.54;1707279;83;21226;-77
2021/04/07 04:40:28;;;;;;;11.18;5.75;;;;;;;3.49;85.96;98551.80;1656415;86;21641;-78
2021/04/07 04:42:56;;;;;;;11.35;6.22;;;;;;;3.47;85.78;98553.14;1698034;84;21222;-79
2021/04/07 04:45:23;;;;;;;9.60;5.78;;;;;;;3.46;86.18;98559.27;1664444;86;21646;-77
2021/04/07 04:47:51;;;;;;;15.08;5.45;;;;;;;3.46;86.16;98563.16;1708048;83;22130;-78
2021/04/07 04:50:19;;;;;;;6.80;4.08;;;;;;;3.46;86.16;98563.16;1649587;86;21205;-80
2021/04/07 04:52:47;;;;;;;6.55;4.37;;;;;;;3.46;85.81;98560.56;1718201;83;21163;-78
2021/04/07 04:55:19;;;;;;;5.42;3.58;;;;;;;3.39;85.76;98573.38;1708279;83;21681;-80
2021/04/07 04:57:47;;;;;;;10.90;4.40;;;;;;;3.39;85.76;98573.38;1710794;82;21624;-80
2021/04/07 05:00:18;;;;;;;;;;;;;;;3.37;85.84;98566.08;1705754;83;21384;-80
2021/04/07 05:02:46;;;;;;;5.87;3.92;;;;;;;3.39;86.02;98569.94;1714803;83;20673;-79
2021/04/07 05:05:15;;;;;;;8.63;4.70;;;;;;;3.32;86.10;98575.33;1714596;83;21199;-79
2021/04/07 05:07:43;;;;;;;5.22;3.83;;;;;;;3.32;86.04;98579.23;1646595;86;21190;-76
2021/04/07 05:10:12;;;;;;;8.05;4.33;;;;;;;3.34;86.08;98580.49;1725139;81;21176;-80
2021/04/07 05:12:40;;;;;;;4.22;3.25;;;;;;;3.38;86.02;98582.53;1731491;81;21217;-78
2021/04/07 05:15:11;;;;;;;7.78;4.10;;;;;;;3.35;85.81;98579.58;1691630;84;21526;-80
2021/04/07 05:17:39;;;;;;;5.60;4.60;;;;;;;3.33;85.67;98581.38;1680919;84;21239;-76
2021/04/07 05:20:09;;;;;;;6.03;4.42;;;;;;;3.32;85.87;98584.89;1697560;84;21694;-75
2021/04/07 05:22:37;;;;;;;6.08;3.83;;;;;;;3.31;85.67;98590.98;1730559;82;21242;-77
2021/04/07 05:25:07;;;;;;;5.12;3.67;;;;;;;3.33;85.64;98598.29;1743569;81;21389;-77
2021/04/07 05:27:34;;;;;;;5.62;3.90;;;;;;;3.33;85.64;98598.29;1733026;81;21599;-76
2021/04/07 05:30:04;;;;;;;5.70;3.95;;;;;;;3.34;85.64;98609.12;1731016;81;21634;-76
2021/04/07 05:32:31;;;;;;;5.87;4.20;;;;;;;3.33;85.59;98607.39;1698444;84;21260;-75
2021/04/07 05:35:00;;;;;;;8.95;4.72;;;;;;;3.30;85.44;98608.34;1699694;83;21240;-77
2021/04/07 05:37:28;;;;;;;10.40;6.20;;;;;;;3.29;85.54;98615.77;1683141;83;21352;-77
2021/04/07 05:39:58;;;;;;;10.32;5.65;;;;;;;3.30;85.73;98617.91;1726930;82;21229;-76
2021/04/07 05:42:26;;;;;;;11.55;5.80;;;;;;;3.29;85.59;98616.19;1726806;82;21232;-77
2021/04/07 05:44:54;;;;;;;12.63;6.75;;;;;;;3.25;85.69;98623.27;1725220;82;21456;-75
2021/04/07 05:47:21;;;;;;;10.65;4.20;;;;;;;3.25;85.80;98623.27;1713422;82;21218;-76
2021/04/07 05:49:51;;;;;;;5.03;3.60;;;;;;;3.25;85.55;98627.63;1700790;82;21422;-77
2021/04/07 05:52:19;;;;;;;8.40;3.50;;;;;;;3.25;85.55;98632.83;1708288;82;21198;-76
2021/04/07 05:54:47;;;;;;;4.08;2.95;;;;;;;3.25;85.54;98631.06;1725745;81;21210;-76
2021/04/07 05:57:17;;;;;;;4.53;3.27;;;;;;;3.27;85.46;98633.17;1694752;84;21688;-76
2021/04/07 05:59:45;;;;;;;4.40;3.67;;;;;;;3.25;85.16;98634.13;1682520;83;21776;-77
2021/04/07 06:02:14;;;;;;;3.95;3.12;;;;;;;3.19;85.13;98633.00;1743508;81;22401;-77
2021/04/07 06:04:42;;;;;;;6.00;3.67;;;;;;;3.21;85.63;98644.22;1735186;81;21147;-77
2021/04/07 06:07:12;;;;;;;5.10;3.55;;;;;;;3.22;85.55;98645.91;1733490;81;21134;-76
2021/04/07 06:09:40;;;;;;;4.25;3.08;;;;;;;3.26;85.33;98644.92;1716354;82;21211;-77
2021/04/07 06:12:08;;;;;;;9.80;4.47;;;;;;;3.27;85.41;98647.48;1698485;83;21598;-75
2021/04/07 06:14:37;;;;;;;7.08;4.03;;;;;;;3.27;84.97;98638.84;1704814;84;21398;-78
2021/04/07 06:17:06;;;;;;;7.80;4.55;;;;;;;3.27;84.97;98638.84;1700015;84;21158;-77
2021/04/07 06:19:34;;;;;;;6.97;4.37;;;;;;;3.28;85.20;98638.77;1736361;80;21257;-77
2021/04/07 06:22:02;;;;;;;6.08;3.60;;;;;;;3.30;85.25;98641.33;1762926;80;21175;-77
2021/04/07 06:24:30;;;;;;;8.28;4.80;;;;;;;3.37;85.28;98650.64;1753165;80;21169;-77
2021/04/07 06:26:58;;;;;;;7.00;3.90;;;;;;;3.42;85.49;98646.14;1739866;80;21382;-75
2021/04/07 06:29:26;;;;;;;7.42;3.58;;;;;;;3.47;85.37;98644.23;1751221;80;21718;-76
2021/04/07 06:31:54;;;;;;;5.80;4.08;;;;;;;3.48;84.98;98652.92;1729631;82;21199;-76
2021/04/07 06:34:22;;;;;;;7.40;4.45;;;;;;;3.50;85.27;98653.27;1729723;81;21664;-77
2021/04/07 06:36:52;;;;;;;6.33;4.78;;;;;;;3.51;85.20;98660.62;1709339;82;21209;-76
2021/04/07 06:39:20;;;;;;;6.80;4.83;;;;;;;3.51;85.24;98654.11;1733977;82;21377;-77
2021/04/07 06:41:48;;;;;;;7.15;4.30;;;;;;;3.53;84.95;98659.66;1718344;81;21141;-76
2021/04/07 06:44:17;;;;;;;5.33;4.35;;;;;;;3.53;84.59;98645.35;1730673;82;21126;-77
2021/04/07 06:46:45;;;;;;;5.58;4.30;;;;;;;3.52;84.03;98654.08;1758393;81;21183;-76
2021/04/07 06:49:13;;;;;;;7.37;5.67;;;;;;;3.53;84.03;98651.02;1745675;81;21219;-78
2021/04/07 06:51:41;;;;;;;13.22;6.67;;;;;;;3.51;83.94;98651.05;1761926;81;21370;-76
2021/04/07 06:54:09;;;;;;;7.45;5.62;;;;;;;3.48;83.89;98643.81;1730977;78;21241;-73
2021/04/07 06:56:39;;;;;;;13.88;6.60;;;;;;;3.52;84.09;98645.39;1660134;84;21140;-72
2021/04/07 06:59:07;;;;;;;7.95;5.80;;;;;;;3.57;83.84;98648.27;1678713;84;21207;-73
2021/04/07 07:01:36;;;;;;;6.55;4.95;;;;;;;3.62;84.09;98652.47;1650489;84;21236;-74
2021/04/07 07:04:05;;;;;;;7.92;5.17;;;;;;;3.57;83.79;98653.47;1669883;84;22232;-73
2021/04/07 07:06:34;;;;;;;6.92;5.15;;;;;;;3.56;84.07;98654.34;1628771;85;21203;-74
2021/04/07 07:09:19;;;;;;;8.10;6.03;;;;;;;3.58;84.09;98656.45;1658557;79;44091;-76
2021/04/07 07:11:49;;;;;;;8.53;6.28;;;;;;;3.55;83.93;98652.66;1762904;80;21643;-78
2021/04/07 07:14:20;;;;;;;7.78;6.42;;;;;;;3.53;84.17;98658.36;1750531;81;21181;-77
2021/04/07 07:16:51;;;;;;;7.08;5.55;;;;;;;3.56;84.47;98651.75;1740902;80;21698;-77
2021/04/07 07:19:30;;;;;;;6.42;5.40;;;;;;;3.63;84.88;98656.77;1750451;81;21210;-77
2021/04/07 07:22:01;;;;;;;7.30;5.35;;;;;;;3.67;84.44;98658.38;1750047;81;21187;-77
2021/04/07 07:24:36;;;;;;;;;;;;;;;3.70;84.22;98662.17;1753635;81;21214;-84
2021/04/07 07:27:06;;;;;;;9.50;5.90;;;;;;;3.79;84.68;98676.19;1753300;81;20263;-80
2021/04/07 07:29:38;;;;;;;9.63;6.47;;;;;;;3.86;84.24;98669.88;1743836;81;22491;-84
2021/04/07 07:32:13;;;;;;;10.13;6.05;;;;;;;3.92;84.21;98664.48;1746645;81;22251;-84
2021/04/07 07:34:43;;;;;;;7.83;5.65;;;;;;;3.99;84.17;98673.78;1757318;81;21175;-83
2021/04/07 07:37:11;;;;;;;7.08;5.80;;;;;;;4.04;83.95;98671.48;1759922;79;21191;-82
2021/04/07 07:39:39;;;;;;;7.92;5.53;;;;;;;4.05;83.80;98673.17;1688999;81;21177;-84
2021/04/07 07:42:09;;;;;;;8.75;6.47;;;;;;;4.07;83.86;98684.39;1750287;80;21400;-87
2021/04/07 07:44:39;;;;;;;8.87;6.60;;;;;;;4.08;83.50;98675.23;1762847;79;21155;-76
2021/04/07 07:50:04;;;;;;;8.37;6.43;;;;;;;4.19;83.27;98680.09;1770018;79;23770;-77
2021/04/07 07:52:39;;;;;;;9.33;6.62;;;;;;;4.14;83.47;98684.58;1761285;80;21146;-76
2021/04/07 07:55:19;;;;;;;9.08;6.12;;;;;;;4.12;83.26;98682.51;1753215;80;22162;-76
2021/04/07 07:57:55;;;;;;;8.88;6.25;;;;;;;4.07;83.27;98681.36;1754421;80;21541;-77
2021/04/07 08:00:24;;;;;;;11.28;7.47;;;;;;;3.98;83.37;98677.77;1767728;79;21565;-77
2021/04/07 08:02:53;;;;;;;9.88;7.08;;;;;;;4.01;83.31;98675.50;1750810;80;21191;-77
2021/04/07 08:05:23;;;;;;;9.08;6.90;;;;;;;3.96;83.17;98664.78;1732223;81;21170;-76
2021/04/07 08:07:52;;;;;;;8.00;6.70;;;;;;;3.95;83.55;98663.06;1720359;82;22676;-76
2021/04/07 08:10:21;;;;;;;9.00;6.53;;;;;;;3.96;83.53;98660.88;1737206;81;22189;-76
2021/04/07 08:12:49;;;;;;;7.37;5.95;;;;;;;3.94;83.59;98661.38;1735606;82;21608;-76
2021/04/07 08:15:17;;;;;;;9.85;6.22;;;;;;;3.93;83.43;98653.17;1714602;82;21755;-76
2021/04/07 08:17:45;;;;;;;6.58;5.85;;;;;;;3.90;82.89;98647.20;1734879;82;21157;-76
2021/04/07 08:20:17;;;;;;;9.58;6.60;;;;;;;3.86;83.16;98645.14;1717769;81;21171;-77
2021/04/07 08:22:45;;;;;;;8.65;6.40;;;;;;;3.87;83.41;98650.77;1716943;83;21266;-76
2021/04/07 08:25:17;;;;;;;9.83;6.80;;;;;;;3.92;83.71;98650.61;1713255;81;21159;-76
2021/04/07 08:27:47;;;;;;;8.43;6.15;;;;;;;3.95;83.87;98653.94;1727761;81;21187;-76
2021/04/07 08:30:16;;;;;;;9.08;6.53;;;;;;;4.01;84.13;98646.84;1693296;83;21219;-77
2021/04/07 08:32:46;;;;;;;8.33;6.08;;;;;;;4.07;84.29;98651.83;1729894;81;21436;-77
2021/04/07 08:35:16;;;;;;;11.18;5.30;;;;;;;4.11;84.18;98654.28;1724993;82;21182;-76
2021/04/07 08:37:46;;;;;;;7.05;5.40;;;;;;;4.12;84.08;98657.30;1692839;82;21145;-76
2021/04/07 08:40:17;;;;;;;6.58;5.10;;;;;;;4.16;83.86;98661.94;1680551;82;21562;-76
2021/04/07 08:42:45;;;;;;;6.80;5.05;;;;;;;4.13;83.23;98660.28;1717523;82;21173;-76
2021/04/07 08:45:13;;;;;;;8.23;6.95;;;;;;;4.11;82.73;98666.46;1730836;82;22162;-77
2021/04/07 08:48:02;;;;;;;7.97;6.17;;;;;;;4.12;83.34;98669.48;1741878;81;21198;-77
2021/04/07 08:50:30;;;;;;;7.05;5.42;;;;;;;4.15;83.49;98670.67;1715407;82;21595;-77
2021/04/07 08:52:58;;;;;;;7.05;5.30;;;;;;;4.17;83.49;98661.05;1721423;82;21217;-77
2021/04/07 08:55:27;;;;;;;7.97;5.58;;;;;;;4.23;83.74;98658.20;1716772;82;21621;-76
2021/04/07 08:58:01;;;;;;;9.33;6.92;;;;;;;4.33;84.01;98655.70;1737792;82;21722;-76
2021/04/07 09:00:33;;;;;;;10.68;7.20;;;;;;;4.37;82.50;98661.20;1731989;82;21174;-76
2021/04/07 09:03:15;;;;;;;9.00;6.83;;;;;;;4.38;82.10;98668.11;1715273;83;21491;-76
2021/04/07 09:05:44;;;;;;;;;;;;;;;4.33;81.58;98668.73;1716108;82;21649;-76
2021/04/07 09:08:22;;;;;;;8.83;6.95;;;;;;;4.36;82.31;98667.30;1715788;83;20265;-76
2021/04/07 09:10:56;;;;;;;9.85;6.50;;;;;;;4.36;81.89;98667.30;1729656;82;22370;-76
2021/04/07 09:13:35;;;;;;;9.50;7.35;;;;;;;4.37;81.89;98672.06;1724034;82;21665;-84
2021/04/07 09:16:05;;;;;;;9.68;7.17;;;;;;;4.31;81.81;98672.30;1724917;82;21177;-85
2021/04/07 09:18:38;;;;;;;10.28;8.10;;;;;;;4.23;81.30;98665.18;1731072;82;21198;-84
2021/04/07 09:21:20;;;;;;;9.08;7.25;;;;;;;4.13;81.12;98672.47;1729833;80;21206;-84
2021/04/07 09:24:02;;;;;;;10.43;7.62;;;;;;;4.03;81.19;98673.70;1730174;80;21416;-84
2021/04/07 09:26:31;;;;;;;9.03;6.78;;;;;;;3.91;81.69;98672.33;1732191;82;21150;-84
2021/04/07 09:28:59;;;;;;;8.30;6.50;;;;;;;3.83;82.28;98676.50;1728634;82;21779;-84
2021/04/07 09:31:35;;;;;;;9.48;7.17;;;;;;;3.79;82.56;98673.59;1737711;82;21174;-85
2021/04/07 09:34:06;;;;;;;9.25;7.67;;;;;;;3.80;82.71;98675.31;1736488;82;21646;-84
2021/04/07 09:36:37;;;;;;;10.80;8.65;;;;;;;3.84;83.19;98683.86;1743744;82;21370;-83
2021/04/07 09:39:11;;;;;;;9.93;7.75;;;;;;;3.89;83.02;98677.61;1727021;82;21185;-83
2021/04/07 09:41:43;;;;;;;9.55;7.70;;;;;;;3.92;82.97;98676.20;1727803;82;21238;-83
2021/04/07 09:44:16;;;;;;;11.10;7.42;;;;;;;3.95;82.93;98683.89;1731478;82;21177;-83
2021/04/07 09:46:55;;;;;;;8.25;6.15;;;;;;;3.95;82.76;98686.96;1734463;81;21217;-83
2021/04/07 09:49:30;;;;;;;10.05;7.00;;;;;;;3.96;82.47;98689.52;1745164;80;21191;-83
2021/04/07 09:51:58;;;;;;;10.32;7.50;;;;;;;3.90;81.56;98694.92;1733167;82;21175;-84
2021/04/07 09:54:38;;;;;;;8.80;7.00;;;;;;;3.84;82.02;98695.12;1733205;82;21145;-83
2021/04/07 09:57:07;;;;;;;9.58;7.30;;;;;;;3.81;82.36;98696.53;1706172;82;21170;-85
2021/04/07 09:59:46;;;;;;;10.13;6.67;;;;;;;3.74;82.24;98685.91;1717561;82;21173;-85
2021/04/07 10:02:26;;;;;;;8.08;6.58;;;;;;;3.67;82.87;98680.05;1743684;82;21586;-84
2021/04/07 10:04:56;;;;;;;7.37;6.40;;;;;;;3.63;83.14;98680.20;1727829;82;22258;-84
2021/04/07 10:07:26;;;;;;;8.50;6.35;;;;;;;3.61;83.37;98674.19;1727931;82;21177;-85
2021/04/07 10:09:59;;;;;;;8.63;6.22;;;;;;;3.62;83.77;98681.95;1742242;82;21190;-84
2021/04/07 10:12:30;;;;;;;9.68;6.40;;;;;;;3.60;83.46;98679.84;1731198;82;21205;-85
2021/04/07 10:15:00;;;;;;;9.18;7.25;;;;;;;3.57;83.63;98686.47;1715664;80;21392;-86
2021/04/07 10:17:39;;;;;;;9.65;6.80;;;;;;;3.56;83.94;98685.59;1729514;82;21150;-84
2021/04/07 10:20:11;;;;;;;9.85;6.65;;;;;;;3.57;84.01;98691.22;1716709;83;21162;-85
2021/04/07 10:22:39;;;;;;;7.15;5.40;;;;;;;3.62;84.26;98691.52;1720948;82;21122;-83
2021/04/07 10:25:22;;;;;;;8.70;6.03;;;;;;;3.62;83.92;98700.64;1715816;82;21107;-83
2021/04/07 10:27:47;;;;;;;;;;;;;;;3.64;84.01;98707.95;1722498;83;21375;-84
2021/04/07 10:30:18;;;;;;;7.05;6.17;;;;;;;3.69;84.01;98715.16;1719654;83;20207;-84
2021/04/07 10:32:49;;;;;;;6.33;5.35;;;;;;;3.72;84.05;98717.66;1741935;81;21108;-83
2021/04/07 10:35:27;;;;;;;;;;;;;;;3.73;83.72;98720.67;1720114;83;21179;-85
2021/04/07 10:38:17;;;;;;;8.53;7.03;;;;;;;3.69;83.69;98717.30;1710907;83;20276;-84
2021/04/07 10:40:46;;;;;;;7.80;6.40;;;;;;;3.66;84.20;98710.03;1729693;82;21242;-84
2021/04/07 10:43:20;;;;;;;6.70;5.97;;;;;;;3.58;83.61;98709.83;1729972;82;21178;-84
2021/04/07 10:46:00;;;;;;;6.78;5.40;;;;;;;3.54;83.58;98713.45;1704269;84;21238;-84
2021/04/07 10:48:29;;;;;;;7.47;5.08;;;;;;;3.48;83.77;98710.18;1703211;84;21525;-83
2021/04/07 10:50:58;;;;;;;6.45;5.00;;;;;;;3.43;83.95;98708.14;1704085;84;21210;-83
2021/04/07 10:53:38;;;;;;;6.85;5.12;;;;;;;3.40;83.98;98707.79;1734617;82;22716;-85
2021/04/07 10:56:18;;;;;;;6.65;5.17;;;;;;;3.44;84.41;98706.80;1734440;82;21566;-83
2021/04/07 10:59:03;;;;;;;8.13;5.73;;;;;;;3.48;85.16;98700.61;1734510;82;21182;-82
2021/04/07 11:01:34;;;;;;;7.45;6.28;;;;;;;3.55;85.33;98698.22;1733705;82;21181;-83
2021/04/07 11:04:17;;;;;;;8.68;7.08;;;;;;;3.52;85.02;98689.21;1743853;81;21172;-84
2021/04/07 11:06:46;;;;;;;5.70;5.12;;;;;;;3.52;85.50;98685.31;1729475;81;21297;-83
2021/04/07 11:09:15;;;;;;;9.85;6.05;;;;;;;3.57;85.57;98687.77;1729794;81;21229;-82
2021/04/07 11:11:44;;;;;;;5.25;4.75;;;;;;;3.55;85.35;98683.90;1756391;81;21145;-83
2021/04/07 11:14:14;;;;;;;6.42;4.90;;;;;;;3.60;85.11;98691.56;1757596;81;21231;-83
2021/04/07 11:16:44;;;;;;;5.72;4.37;;;;;;;3.59;84.82;98689.87;1740344;81;21168;-83
2021/04/07 11:19:16;;;;;;;5.05;3.98;;;;;;;3.58;84.80;98688.16;1737291;81;22311;-82
2021/04/07 11:21:44;;;;;;;4.40;3.72;;;;;;;3.53;84.61;98702.61;1745135;81;21187;-83
2021/04/07 11:24:13;;;;;;;3.45;3.08;;;;;;;3.48;84.60;98695.86;1743371;81;21588;-82
2021/04/07 11:26:43;;;;;;;5.12;3.20;;;;;;;3.45;84.46;98692.91;1752797;81;21120;-82
2021/04/07 11:29:12;;;;;;;3.80;3.02;;;;;;;3.46;84.61;98688.55;1744755;81;21212;-84
2021/04/07 11:31:39;;;;;;;5.47;3.70;;;;;;;3.47;84.39;98687.17;1744103;80;21364;-86
2021/04/07 11:34:11;;;;;;;3.58;3.20;;;;;;;3.49;84.89;98687.98;1735907;81;21191;-85
2021/04/07 11:39:16;;;;;;;4.92;3.30;;;;;;;3.58;84.68;98689.00;1736769;81;21176;-86
2021/04/07 11:41:55;;;;;;;6.42;4.28;;;;;;;3.62;84.92;98692.38;1739176;81;21209;-86
2021/04/07 11:46:44;;;;;;;3.47;2.72;;;;;;;3.76;85.33;98685.41;1735407;81;21149;-85
2021/04/07 11:49:13;;;;;;;4.42;2.83;;;;;;;3.85;84.94;98685.58;1748706;80;21185;-81
2021/04/07 11:51:42;;;;;;;4.15;2.45;;;;;;;3.90;85.04;98689.72;1743675;81;21220;-81
2021/04/07 11:54:12;;;;;;;3.37;2.83;;;;;;;3.96;84.85;98693.43;1735408;80;21211;-82
2021/04/07 11:56:43;;;;;;;3.17;2.60;;;;;;;4.02;85.33;98699.33;1742033;81;23100;-81
2021/04/07 11:59:15;;;;;;;2.70;2.50;;;;;;;4.10;84.50;98702.55;1740168;81;21232;-83